sensor_id;sensor_type;location;lat;lon;timestamp;temperature;humidity
73568;SHT30;61847;54.994;73.310;2022-07-12T00:02:24;21.28;64.01
73568;SHT30;61847;54.994;73.310;2022-07-12T00:04:50;21.27;63.95
73568;SHT30;61847;54.994;73.310;2022-07-12T00:07:17;21.27;64.22
73568;SHT30;61847;54.994;73.310;2022-07-12T00:09:44;21.24;64.15
73568;SHT30;61847;54.994;73.310;2022-07-12T00:12:10;21.13;64.52
73568;SHT30;61847;54.994;73.310;2022-07-12T00:14:36;21.15;64.43
73568;SHT30;61847;54.994;73.310;2022-07-12T00:17:03;21.17;64.78
73568;SHT30;61847;54.994;73.310;2022-07-12T00:19:30;21.13;64.75
73568;SHT30;61847;54.994;73.310;2022-07-12T00:22:06;21.15;64.55
73568;SHT30;61847;54.994;73.310;2022-07-12T00:24:32;21.28;64.22
73568;SHT30;61847;54.994;73.310;2022-07-12T00:27:01;21.26;64.14
73568;SHT30;61847;54.994;73.310;2022-07-12T00:29:27;21.32;63.68
73568;SHT30;61847;54.994;73.310;2022-07-12T00:31:53;21.40;63.58
73568;SHT30;61847;54.994;73.310;2022-07-12T00:34:19;21.50;63.47
73568;SHT30;61847;54.994;73.310;2022-07-12T00:36:45;21.47;63.61
73568;SHT30;61847;54.994;73.310;2022-07-12T00:39:12;21.34;64.08
73568;SHT30;61847;54.994;73.310;2022-07-12T00:41:41;21.37;64.08
73568;SHT30;61847;54.994;73.310;2022-07-12T00:44:08;21.42;64.28
73568;SHT30;61847;54.994;73.310;2022-07-12T00:46:35;21.50;64.12
73568;SHT30;61847;54.994;73.310;2022-07-12T00:49:01;21.55;63.90
73568;SHT30;61847;54.994;73.310;2022-07-12T00:51:28;21.61;64.12
73568;SHT30;61847;54.994;73.310;2022-07-12T00:53:58;21.66;63.46
73568;SHT30;61847;54.994;73.310;2022-07-12T00:56:25;21.68;63.77
73568;SHT30;61847;54.994;73.310;2022-07-12T00:58:57;21.65;64.06
73568;SHT30;61847;54.994;73.310;2022-07-12T01:01:23;21.65;64.61
73568;SHT30;61847;54.994;73.310;2022-07-12T01:03:50;21.68;64.29
73568;SHT30;61847;54.994;73.310;2022-07-12T01:06:27;21.71;64.35
73568;SHT30;61847;54.994;73.310;2022-07-12T01:08:53;21.77;63.77
73568;SHT30;61847;54.994;73.310;2022-07-12T01:11:19;21.89;62.93
73568;SHT30;61847;54.994;73.310;2022-07-12T01:13:46;21.99;62.62
73568;SHT30;61847;54.994;73.310;2022-07-12T01:16:13;21.93;63.16
73568;SHT30;61847;54.994;73.310;2022-07-12T01:18:40;21.88;63.59
73568;SHT30;61847;54.994;73.310;2022-07-12T01:21:07;21.97;63.68
73568;SHT30;61847;54.994;73.310;2022-07-12T01:23:34;21.97;63.65
73568;SHT30;61847;54.994;73.310;2022-07-12T01:26:03;22.06;63.41
73568;SHT30;61847;54.994;73.310;2022-07-12T01:28:29;22.13;63.34
73568;SHT30;61847;54.994;73.310;2022-07-12T01:30:55;22.18;63.15
73568;SHT30;61847;54.994;73.310;2022-07-12T01:33:22;22.16;63.34
73568;SHT30;61847;54.994;73.310;2022-07-12T01:35:48;22.21;63.10
73568;SHT30;61847;54.994;73.310;2022-07-12T01:38:15;22.26;62.88
73568;SHT30;61847;54.994;73.310;2022-07-12T01:40:42;22.30;62.51
73568;SHT30;61847;54.994;73.310;2022-07-12T01:43:11;22.36;63.15
73568;SHT30;61847;54.994;73.310;2022-07-12T01:45:38;22.40;63.15
73568;SHT30;61847;54.994;73.310;2022-07-12T01:48:05;22.43;62.15
73568;SHT30;61847;54.994;73.310;2022-07-12T01:50:32;22.48;62.77
73568;SHT30;61847;54.994;73.310;2022-07-12T01:53:00;22.53;61.79
73568;SHT30;61847;54.994;73.310;2022-07-12T01:55:27;22.58;62.20
73568;SHT30;61847;54.994;73.310;2022-07-12T01:57:53;22.63;62.05
73568;SHT30;61847;54.994;73.310;2022-07-12T02:00:24;22.65;62.30
73568;SHT30;61847;54.994;73.310;2022-07-12T02:02:51;22.68;61.48
73568;SHT30;61847;54.994;73.310;2022-07-12T02:05:17;22.71;61.46
73568;SHT30;61847;54.994;73.310;2022-07-12T02:07:43;22.76;60.92
73568;SHT30;61847;54.994;73.310;2022-07-12T02:10:10;22.87;61.11
73568;SHT30;61847;54.994;73.310;2022-07-12T02:12:36;22.85;61.68
73568;SHT30;61847;54.994;73.310;2022-07-12T02:15:05;22.91;61.42
73568;SHT30;61847;54.994;73.310;2022-07-12T02:17:32;22.98;61.54
73568;SHT30;61847;54.994;73.310;2022-07-12T02:20:02;23.03;61.15
73568;SHT30;61847;54.994;73.310;2022-07-12T02:22:28;23.08;60.02
73568;SHT30;61847;54.994;73.310;2022-07-12T02:24:55;23.15;60.69
73568;SHT30;61847;54.994;73.310;2022-07-12T02:27:21;23.19;59.36
73568;SHT30;61847;54.994;73.310;2022-07-12T02:29:49;23.26;59.28
73568;SHT30;61847;54.994;73.310;2022-07-12T02:32:16;23.32;59.49
73568;SHT30;61847;54.994;73.310;2022-07-12T02:34:42;23.40;59.01
73568;SHT30;61847;54.994;73.310;2022-07-12T02:37:10;23.45;58.02
73568;SHT30;61847;54.994;73.310;2022-07-12T02:39:37;23.57;57.74
73568;SHT30;61847;54.994;73.310;2022-07-12T02:42:03;23.61;56.21
73568;SHT30;61847;54.994;73.310;2022-07-12T02:44:39;23.70;56.06
73568;SHT30;61847;54.994;73.310;2022-07-12T02:47:05;23.77;56.08
73568;SHT30;61847;54.994;73.310;2022-07-12T02:49:37;23.84;55.69
73568;SHT30;61847;54.994;73.310;2022-07-12T02:52:10;23.95;55.37
73568;SHT30;61847;54.994;73.310;2022-07-12T02:54:39;24.01;54.68
73568;SHT30;61847;54.994;73.310;2022-07-12T02:57:10;24.08;54.52
73568;SHT30;61847;54.994;73.310;2022-07-12T02:59:36;24.11;53.96
73568;SHT30;61847;54.994;73.310;2022-07-12T03:02:08;24.21;52.43
73568;SHT30;61847;54.994;73.310;2022-07-12T03:04:44;24.28;52.54
73568;SHT30;61847;54.994;73.310;2022-07-12T03:07:10;24.36;51.70
73568;SHT30;61847;54.994;73.310;2022-07-12T03:09:37;24.37;51.51
73568;SHT30;61847;54.994;73.310;2022-07-12T03:12:13;24.49;51.05
73568;SHT30;61847;54.994;73.310;2022-07-12T03:14:39;24.56;52.23
73568;SHT30;61847;54.994;73.310;2022-07-12T03:17:05;24.63;51.04
73568;SHT30;61847;54.994;73.310;2022-07-12T03:19:32;24.69;50.44
73568;SHT30;61847;54.994;73.310;2022-07-12T03:22:01;24.74;50.17
73568;SHT30;61847;54.994;73.310;2022-07-12T03:24:27;24.83;50.93
73568;SHT30;61847;54.994;73.310;2022-07-12T03:26:53;24.88;50.95
73568;SHT30;61847;54.994;73.310;2022-07-12T03:29:32;24.90;50.43
73568;SHT30;61847;54.994;73.310;2022-07-12T03:31:59;24.95;50.63
73568;SHT30;61847;54.994;73.310;2022-07-12T03:34:26;25.00;51.28
73568;SHT30;61847;54.994;73.310;2022-07-12T03:36:52;25.08;50.54
73568;SHT30;61847;54.994;73.310;2022-07-12T03:39:22;25.12;49.85
73568;SHT30;61847;54.994;73.310;2022-07-12T03:41:48;25.20;49.66
73568;SHT30;61847;54.994;73.310;2022-07-12T03:44:14;25.22;50.19
73568;SHT30;61847;54.994;73.310;2022-07-12T03:46:40;25.31;49.01
73568;SHT30;61847;54.994;73.310;2022-07-12T03:49:08;25.34;49.69
73568;SHT30;61847;54.994;73.310;2022-07-12T03:51:34;25.43;49.69
73568;SHT30;61847;54.994;73.310;2022-07-12T03:54:00;25.49;49.52
73568;SHT30;61847;54.994;73.310;2022-07-12T03:56:26;25.56;49.49
73568;SHT30;61847;54.994;73.310;2022-07-12T03:59:14;25.62;48.53
73568;SHT30;61847;54.994;73.310;2022-07-12T04:01:41;25.65;48.26
73568;SHT30;61847;54.994;73.310;2022-07-12T04:04:18;25.69;47.64
73568;SHT30;61847;54.994;73.310;2022-07-12T04:06:44;25.70;47.96
73568;SHT30;61847;54.994;73.310;2022-07-12T04:09:12;25.72;48.12
73568;SHT30;61847;54.994;73.310;2022-07-12T04:11:38;25.73;47.48
73568;SHT30;61847;54.994;73.310;2022-07-12T04:14:05;25.77;47.49
73568;SHT30;61847;54.994;73.310;2022-07-12T04:16:31;25.76;47.43
73568;SHT30;61847;54.994;73.310;2022-07-12T04:18:58;25.85;47.78
73568;SHT30;61847;54.994;73.310;2022-07-12T04:21:25;25.85;48.26
73568;SHT30;61847;54.994;73.310;2022-07-12T04:23:51;25.89;48.38
73568;SHT30;61847;54.994;73.310;2022-07-12T04:26:17;25.92;47.25
73568;SHT30;61847;54.994;73.310;2022-07-12T04:28:43;25.94;48.25
73568;SHT30;61847;54.994;73.310;2022-07-12T04:31:09;25.97;47.74
73568;SHT30;61847;54.994;73.310;2022-07-12T04:33:36;26.03;47.07
73568;SHT30;61847;54.994;73.310;2022-07-12T04:36:02;26.10;48.02
73568;SHT30;61847;54.994;73.310;2022-07-12T04:38:28;26.13;49.53
73568;SHT30;61847;54.994;73.310;2022-07-12T04:41:03;26.14;46.29
73568;SHT30;61847;54.994;73.310;2022-07-12T04:43:29;26.17;45.93
73568;SHT30;61847;54.994;73.310;2022-07-12T04:45:56;26.27;44.33
73568;SHT30;61847;54.994;73.310;2022-07-12T04:48:22;26.33;43.04
73568;SHT30;61847;54.994;73.310;2022-07-12T04:50:48;26.47;43.25
73568;SHT30;61847;54.994;73.310;2022-07-12T04:53:25;26.58;42.98
73568;SHT30;61847;54.994;73.310;2022-07-12T04:55:51;26.62;43.42
73568;SHT30;61847;54.994;73.310;2022-07-12T04:58:19;26.68;44.40
73568;SHT30;61847;54.994;73.310;2022-07-12T05:00:45;26.79;44.09
73568;SHT30;61847;54.994;73.310;2022-07-12T05:03:12;26.88;43.85
73568;SHT30;61847;54.994;73.310;2022-07-12T05:05:38;26.93;43.31
73568;SHT30;61847;54.994;73.310;2022-07-12T05:08:04;26.98;42.73
73568;SHT30;61847;54.994;73.310;2022-07-12T05:10:30;26.99;43.98
73568;SHT30;61847;54.994;73.310;2022-07-12T05:12:57;27.10;44.35
73568;SHT30;61847;54.994;73.310;2022-07-12T05:15:23;27.13;43.31
73568;SHT30;61847;54.994;73.310;2022-07-12T05:17:49;27.20;44.14
73568;SHT30;61847;54.994;73.310;2022-07-12T05:20:16;27.23;44.04
73568;SHT30;61847;54.994;73.310;2022-07-12T05:22:42;27.20;44.53
73568;SHT30;61847;54.994;73.310;2022-07-12T05:25:13;27.14;44.97
73568;SHT30;61847;54.994;73.310;2022-07-12T05:27:42;27.09;44.23
73568;SHT30;61847;54.994;73.310;2022-07-12T05:30:13;27.11;43.90
73568;SHT30;61847;54.994;73.310;2022-07-12T05:32:39;27.11;44.20
73568;SHT30;61847;54.994;73.310;2022-07-12T05:35:06;27.11;45.40
73568;SHT30;61847;54.994;73.310;2022-07-12T05:37:33;27.13;43.95
73568;SHT30;61847;54.994;73.310;2022-07-12T05:40:00;27.11;44.28
73568;SHT30;61847;54.994;73.310;2022-07-12T05:42:26;27.17;44.25
73568;SHT30;61847;54.994;73.310;2022-07-12T05:44:52;27.17;43.83
73568;SHT30;61847;54.994;73.310;2022-07-12T05:47:19;27.13;44.55
73568;SHT30;61847;54.994;73.310;2022-07-12T05:49:47;27.14;44.57
73568;SHT30;61847;54.994;73.310;2022-07-12T05:52:13;27.19;43.67
73568;SHT30;61847;54.994;73.310;2022-07-12T05:54:59;27.22;43.86
73568;SHT30;61847;54.994;73.310;2022-07-12T05:57:25;27.24;44.26
73568;SHT30;61847;54.994;73.310;2022-07-12T05:59:54;27.29;44.12
73568;SHT30;61847;54.994;73.310;2022-07-12T06:02:20;27.33;44.29
73568;SHT30;61847;54.994;73.310;2022-07-12T06:04:46;27.38;43.77
73568;SHT30;61847;54.994;73.310;2022-07-12T06:07:13;27.48;43.75
73568;SHT30;61847;54.994;73.310;2022-07-12T06:09:49;27.61;44.03
73568;SHT30;61847;54.994;73.310;2022-07-12T06:12:16;27.71;42.35
73568;SHT30;61847;54.994;73.310;2022-07-12T06:14:42;27.74;42.50
73568;SHT30;61847;54.994;73.310;2022-07-12T06:17:10;27.69;43.00
73568;SHT30;61847;54.994;73.310;2022-07-12T06:19:36;27.68;43.51
73568;SHT30;61847;54.994;73.310;2022-07-12T06:22:04;27.71;43.72
73568;SHT30;61847;54.994;73.310;2022-07-12T06:24:33;27.65;43.86
73568;SHT30;61847;54.994;73.310;2022-07-12T06:26:59;27.67;43.90
73568;SHT30;61847;54.994;73.310;2022-07-12T06:29:26;27.71;43.31
73568;SHT30;61847;54.994;73.310;2022-07-12T06:31:52;27.81;43.07
73568;SHT30;61847;54.994;73.310;2022-07-12T06:34:18;27.95;43.39
73568;SHT30;61847;54.994;73.310;2022-07-12T06:36:45;28.02;42.35
73568;SHT30;61847;54.994;73.310;2022-07-12T06:39:12;28.10;41.77
73568;SHT30;61847;54.994;73.310;2022-07-12T06:41:39;28.24;42.62
73568;SHT30;61847;54.994;73.310;2022-07-12T06:44:05;28.39;40.84
73568;SHT30;61847;54.994;73.310;2022-07-12T06:46:32;28.40;39.74
73568;SHT30;61847;54.994;73.310;2022-07-12T06:48:58;28.53;40.25
73568;SHT30;61847;54.994;73.310;2022-07-12T06:51:24;28.75;39.63
73568;SHT30;61847;54.994;73.310;2022-07-12T06:53:51;28.97;38.80
73568;SHT30;61847;54.994;73.310;2022-07-12T06:56:17;29.05;39.79
73568;SHT30;61847;54.994;73.310;2022-07-12T06:58:43;29.14;38.14
73568;SHT30;61847;54.994;73.310;2022-07-12T07:01:12;29.22;38.01
73568;SHT30;61847;54.994;73.310;2022-07-12T07:03:39;29.22;38.66
73568;SHT30;61847;54.994;73.310;2022-07-12T07:06:05;29.16;39.32
73568;SHT30;61847;54.994;73.310;2022-07-12T07:08:39;29.09;39.74
73568;SHT30;61847;54.994;73.310;2022-07-12T07:11:06;29.02;40.26
73568;SHT30;61847;54.994;73.310;2022-07-12T07:13:33;28.84;40.42
73568;SHT30;61847;54.994;73.310;2022-07-12T07:15:59;28.86;40.46
73568;SHT30;61847;54.994;73.310;2022-07-12T07:18:25;28.88;40.51
73568;SHT30;61847;54.994;73.310;2022-07-12T07:20:51;28.86;40.81
73568;SHT30;61847;54.994;73.310;2022-07-12T07:23:18;28.87;40.74
73568;SHT30;61847;54.994;73.310;2022-07-12T07:25:46;28.84;40.95
73568;SHT30;61847;54.994;73.310;2022-07-12T07:28:12;28.90;41.09
73568;SHT30;61847;54.994;73.310;2022-07-12T07:30:39;28.94;40.35
73568;SHT30;61847;54.994;73.310;2022-07-12T07:33:21;28.92;40.91
73568;SHT30;61847;54.994;73.310;2022-07-12T07:35:49;28.92;40.11
73568;SHT30;61847;54.994;73.310;2022-07-12T07:38:19;29.08;40.85
73568;SHT30;61847;54.994;73.310;2022-07-12T07:40:45;29.07;41.88
73568;SHT30;61847;54.994;73.310;2022-07-12T07:43:11;29.04;41.23
73568;SHT30;61847;54.994;73.310;2022-07-12T07:45:37;28.94;40.85
73568;SHT30;61847;54.994;73.310;2022-07-12T07:48:04;28.95;40.73
73568;SHT30;61847;54.994;73.310;2022-07-12T07:50:30;28.77;41.54
73568;SHT30;61847;54.994;73.310;2022-07-12T07:52:57;28.80;41.97
73568;SHT30;61847;54.994;73.310;2022-07-12T07:55:23;28.87;41.38
73568;SHT30;61847;54.994;73.310;2022-07-12T07:57:49;28.84;41.08
73568;SHT30;61847;54.994;73.310;2022-07-12T08:00:16;28.95;40.70
73568;SHT30;61847;54.994;73.310;2022-07-12T08:02:42;29.07;41.22
73568;SHT30;61847;54.994;73.310;2022-07-12T08:05:08;29.05;40.54
73568;SHT30;61847;54.994;73.310;2022-07-12T08:07:38;29.12;41.02
73568;SHT30;61847;54.994;73.310;2022-07-12T08:10:05;29.19;40.27
73568;SHT30;61847;54.994;73.310;2022-07-12T08:12:32;29.28;40.18
73568;SHT30;61847;54.994;73.310;2022-07-12T08:15:00;29.23;40.49
73568;SHT30;61847;54.994;73.310;2022-07-12T08:17:27;29.33;40.18
73568;SHT30;61847;54.994;73.310;2022-07-12T08:19:53;29.47;40.27
73568;SHT30;61847;54.994;73.310;2022-07-12T08:22:21;29.46;39.79
73568;SHT30;61847;54.994;73.310;2022-07-12T08:24:47;29.57;39.70
73568;SHT30;61847;54.994;73.310;2022-07-12T08:27:14;29.62;40.53
73568;SHT30;61847;54.994;73.310;2022-07-12T08:29:40;29.70;39.87
73568;SHT30;61847;54.994;73.310;2022-07-12T08:32:07;29.74;39.81
73568;SHT30;61847;54.994;73.310;2022-07-12T08:34:39;29.80;39.21
73568;SHT30;61847;54.994;73.310;2022-07-12T08:37:14;29.72;39.50
73568;SHT30;61847;54.994;73.310;2022-07-12T08:39:40;29.55;40.11
73568;SHT30;61847;54.994;73.310;2022-07-12T08:42:07;29.38;40.46
73568;SHT30;61847;54.994;73.310;2022-07-12T08:44:34;29.25;41.25
73568;SHT30;61847;54.994;73.310;2022-07-12T08:47:04;29.26;41.69
73568;SHT30;61847;54.994;73.310;2022-07-12T08:49:35;29.19;41.28
73568;SHT30;61847;54.994;73.310;2022-07-12T08:52:25;29.19;41.28
73568;SHT30;61847;54.994;73.310;2022-07-12T08:54:52;29.36;41.17
73568;SHT30;61847;54.994;73.310;2022-07-12T08:57:29;29.73;40.92
73568;SHT30;61847;54.994;73.310;2022-07-12T09:00:01;29.93;39.57
73568;SHT30;61847;54.994;73.310;2022-07-12T09:02:28;30.14;40.43
73568;SHT30;61847;54.994;73.310;2022-07-12T09:05:10;30.21;40.07
73568;SHT30;61847;54.994;73.310;2022-07-12T09:07:42;30.13;39.41
73568;SHT30;61847;54.994;73.310;2022-07-12T09:10:10;30.21;39.81
73568;SHT30;61847;54.994;73.310;2022-07-12T09:12:38;30.22;40.08
73568;SHT30;61847;54.994;73.310;2022-07-12T09:15:16;30.22;38.96
73568;SHT30;61847;54.994;73.310;2022-07-12T09:18:04;30.21;38.75
73568;SHT30;61847;54.994;73.310;2022-07-12T09:20:35;30.33;38.24
73568;SHT30;61847;54.994;73.310;2022-07-12T09:23:06;30.49;37.79
73568;SHT30;61847;54.994;73.310;2022-07-12T09:25:36;30.51;37.52
73568;SHT30;61847;54.994;73.310;2022-07-12T09:28:07;30.45;38.23
73568;SHT30;61847;54.994;73.310;2022-07-12T09:30:35;30.38;39.19
73568;SHT30;61847;54.994;73.310;2022-07-12T09:33:07;30.51;39.63
73568;SHT30;61847;54.994;73.310;2022-07-12T09:35:59;30.63;39.66
73568;SHT30;61847;54.994;73.310;2022-07-12T09:38:54;30.68;39.45
73568;SHT30;61847;54.994;73.310;2022-07-12T09:41:27;30.78;39.61
73568;SHT30;61847;54.994;73.310;2022-07-12T09:43:53;30.65;40.17
73568;SHT30;61847;54.994;73.310;2022-07-12T09:46:20;30.39;40.23
73568;SHT30;61847;54.994;73.310;2022-07-12T09:48:46;30.55;40.04
73568;SHT30;61847;54.994;73.310;2022-07-12T09:51:17;30.76;39.91
73568;SHT30;61847;54.994;73.310;2022-07-12T09:53:49;30.21;40.55
73568;SHT30;61847;54.994;73.310;2022-07-12T09:56:18;30.48;39.80
73568;SHT30;61847;54.994;73.310;2022-07-12T09:58:55;30.39;40.17
73568;SHT30;61847;54.994;73.310;2022-07-12T10:01:23;30.43;39.89
73568;SHT30;61847;54.994;73.310;2022-07-12T10:03:56;30.51;39.58
73568;SHT30;61847;54.994;73.310;2022-07-12T10:06:29;30.51;40.38
73568;SHT30;61847;54.994;73.310;2022-07-12T10:08:56;30.41;40.32
73568;SHT30;61847;54.994;73.310;2022-07-12T10:11:23;30.61;39.58
73568;SHT30;61847;54.994;73.310;2022-07-12T10:13:51;30.65;38.48
73568;SHT30;61847;54.994;73.310;2022-07-12T10:16:27;30.79;37.65
73568;SHT30;61847;54.994;73.310;2022-07-12T10:21:52;30.76;37.61
73568;SHT30;61847;54.994;73.310;2022-07-12T10:30:12;30.96;37.35
73568;SHT30;61847;54.994;73.310;2022-07-12T10:32:51;31.16;36.77
73568;SHT30;61847;54.994;73.310;2022-07-12T10:35:21;31.10;35.83
73568;SHT30;61847;54.994;73.310;2022-07-12T10:38:14;31.23;35.76
73568;SHT30;61847;54.994;73.310;2022-07-12T10:40:44;31.27;35.60
73568;SHT30;61847;54.994;73.310;2022-07-12T10:43:12;31.08;36.07
73568;SHT30;61847;54.994;73.310;2022-07-12T10:45:42;31.13;36.30
73568;SHT30;61847;54.994;73.310;2022-07-12T10:48:20;31.03;36.82
73568;SHT30;61847;54.994;73.310;2022-07-12T10:53:31;30.83;37.28
73568;SHT30;61847;54.994;73.310;2022-07-12T10:56:19;30.91;37.63
73568;SHT30;61847;54.994;73.310;2022-07-12T10:58:52;30.96;37.83
73568;SHT30;61847;54.994;73.310;2022-07-12T11:01:24;31.11;37.47
73568;SHT30;61847;54.994;73.310;2022-07-12T11:06:24;31.14;37.21
73568;SHT30;61847;54.994;73.310;2022-07-12T11:08:58;30.70;38.20
73568;SHT30;61847;54.994;73.310;2022-07-12T11:11:31;30.97;38.34
73568;SHT30;61847;54.994;73.310;2022-07-12T11:13:58;31.30;39.33
73568;SHT30;61847;54.994;73.310;2022-07-12T11:16:26;31.23;37.84
73568;SHT30;61847;54.994;73.310;2022-07-12T11:19:06;30.87;39.35
73568;SHT30;61847;54.994;73.310;2022-07-12T11:21:35;30.24;42.57
73568;SHT30;61847;54.994;73.310;2022-07-12T11:24:18;29.77;44.03
73568;SHT30;61847;54.994;73.310;2022-07-12T11:26:45;30.14;43.21
73568;SHT30;61847;54.994;73.310;2022-07-12T11:29:12;30.52;42.85
73568;SHT30;61847;54.994;73.310;2022-07-12T11:31:38;30.68;42.66
73568;SHT30;61847;54.994;73.310;2022-07-12T11:34:05;30.65;43.58
73568;SHT30;61847;54.994;73.310;2022-07-12T11:36:32;30.49;42.34
73568;SHT30;61847;54.994;73.310;2022-07-12T11:38:59;30.33;42.94
73568;SHT30;61847;54.994;73.310;2022-07-12T11:41:26;30.76;42.54
73568;SHT30;61847;54.994;73.310;2022-07-12T11:43:52;30.91;43.31
73568;SHT30;61847;54.994;73.310;2022-07-12T11:46:22;30.70;43.31
73568;SHT30;61847;54.994;73.310;2022-07-12T11:48:49;30.89;43.20
73568;SHT30;61847;54.994;73.310;2022-07-12T11:51:19;30.83;43.24
73568;SHT30;61847;54.994;73.310;2022-07-12T11:53:51;30.08;43.67
73568;SHT30;61847;54.994;73.310;2022-07-12T11:56:29;29.77;43.89
73568;SHT30;61847;54.994;73.310;2022-07-12T11:58:56;29.63;44.02
73568;SHT30;61847;54.994;73.310;2022-07-12T12:01:24;29.93;43.51
73568;SHT30;61847;54.994;73.310;2022-07-12T12:03:51;30.20;42.74
73568;SHT30;61847;54.994;73.310;2022-07-12T12:06:18;30.63;42.42
73568;SHT30;61847;54.994;73.310;2022-07-12T12:08:45;30.89;42.19
73568;SHT30;61847;54.994;73.310;2022-07-12T12:11:11;30.87;42.31
73568;SHT30;61847;54.994;73.310;2022-07-12T12:13:43;30.72;42.75
73568;SHT30;61847;54.994;73.310;2022-07-12T12:16:21;31.58;41.05
73568;SHT30;61847;54.994;73.310;2022-07-12T12:18:47;31.28;41.66
73568;SHT30;61847;54.994;73.310;2022-07-12T12:21:14;30.93;41.45
73568;SHT30;61847;54.994;73.310;2022-07-12T12:23:41;30.39;42.26
73568;SHT30;61847;54.994;73.310;2022-07-12T12:26:19;30.15;42.50
73568;SHT30;61847;54.994;73.310;2022-07-12T12:28:52;30.05;43.03
73568;SHT30;61847;54.994;73.310;2022-07-12T12:31:19;29.74;44.53
73568;SHT30;61847;54.994;73.310;2022-07-12T12:36:25;29.33;46.35
73568;SHT30;61847;54.994;73.310;2022-07-12T12:38:57;29.09;46.78
73568;SHT30;61847;54.994;73.310;2022-07-12T12:41:25;29.16;46.88
73568;SHT30;61847;54.994;73.310;2022-07-12T12:44:03;29.20;47.63
73568;SHT30;61847;54.994;73.310;2022-07-12T12:46:55;29.86;45.72
73568;SHT30;61847;54.994;73.310;2022-07-12T12:49:44;30.27;44.78
73568;SHT30;61847;54.994;73.310;2022-07-12T12:52:11;30.97;43.70
73568;SHT30;61847;54.994;73.310;2022-07-12T12:54:37;31.26;42.73
73568;SHT30;61847;54.994;73.310;2022-07-12T12:57:08;31.58;42.22
73568;SHT30;61847;54.994;73.310;2022-07-12T12:59:35;31.06;42.95
73568;SHT30;61847;54.994;73.310;2022-07-12T13:02:03;30.90;43.41
73568;SHT30;61847;54.994;73.310;2022-07-12T13:04:31;31.03;43.49
73568;SHT30;61847;54.994;73.310;2022-07-12T13:07:04;30.01;45.68
73568;SHT30;61847;54.994;73.310;2022-07-12T13:09:37;29.77;46.19
73568;SHT30;61847;54.994;73.310;2022-07-12T13:12:08;30.31;45.24
73568;SHT30;61847;54.994;73.310;2022-07-12T13:14:36;30.45;44.96
73568;SHT30;61847;54.994;73.310;2022-07-12T13:17:03;30.69;44.95
73568;SHT30;61847;54.994;73.310;2022-07-12T13:19:30;31.00;43.77
73568;SHT30;61847;54.994;73.310;2022-07-12T13:22:08;31.18;42.97
73568;SHT30;61847;54.994;73.310;2022-07-12T13:24:34;31.21;42.61
73568;SHT30;61847;54.994;73.310;2022-07-12T13:27:07;31.13;42.33
73568;SHT30;61847;54.994;73.310;2022-07-12T13:29:34;31.26;42.36
73568;SHT30;61847;54.994;73.310;2022-07-12T13:32:09;31.54;41.81
73568;SHT30;61847;54.994;73.310;2022-07-12T13:34:48;30.83;43.17
73568;SHT30;61847;54.994;73.310;2022-07-12T13:37:16;30.79;43.70
73568;SHT30;61847;54.994;73.310;2022-07-12T13:39:43;30.28;43.13
73568;SHT30;61847;54.994;73.310;2022-07-12T13:42:28;29.62;44.39
73568;SHT30;61847;54.994;73.310;2022-07-12T13:44:55;29.84;43.78
73568;SHT30;61847;54.994;73.310;2022-07-12T13:47:24;29.43;44.25
73568;SHT30;61847;54.994;73.310;2022-07-12T13:49:51;29.66;43.77
73568;SHT30;61847;54.994;73.310;2022-07-12T13:52:17;29.07;45.00
73568;SHT30;61847;54.994;73.310;2022-07-12T13:54:44;28.68;45.72
73568;SHT30;61847;54.994;73.310;2022-07-12T13:57:11;28.61;45.81
73568;SHT30;61847;54.994;73.310;2022-07-12T13:59:38;28.47;46.17
73568;SHT30;61847;54.994;73.310;2022-07-12T14:02:14;28.29;46.17
73568;SHT30;61847;54.994;73.310;2022-07-12T14:04:40;28.06;46.85
73568;SHT30;61847;54.994;73.310;2022-07-12T14:07:10;27.89;47.34
73568;SHT30;61847;54.994;73.310;2022-07-12T14:09:37;27.77;47.89
73568;SHT30;61847;54.994;73.310;2022-07-12T14:12:03;27.54;47.89
73568;SHT30;61847;54.994;73.310;2022-07-12T14:14:30;27.43;47.95
73568;SHT30;61847;54.994;73.310;2022-07-12T14:17:15;27.51;48.11
73568;SHT30;61847;54.994;73.310;2022-07-12T14:19:41;27.37;47.74
73568;SHT30;61847;54.994;73.310;2022-07-12T14:22:12;27.36;47.04
73568;SHT30;61847;54.994;73.310;2022-07-12T14:24:39;27.07;47.48
73568;SHT30;61847;54.994;73.310;2022-07-12T14:27:05;27.03;47.51
73568;SHT30;61847;54.994;73.310;2022-07-12T14:29:36;26.96;47.56
73568;SHT30;61847;54.994;73.310;2022-07-12T14:32:08;26.81;48.05
73568;SHT30;61847;54.994;73.310;2022-07-12T14:34:40;26.65;48.43
73568;SHT30;61847;54.994;73.310;2022-07-12T14:37:17;26.78;47.86
73568;SHT30;61847;54.994;73.310;2022-07-12T14:39:43;26.73;47.95
73568;SHT30;61847;54.994;73.310;2022-07-12T14:42:10;26.45;48.69
73568;SHT30;61847;54.994;73.310;2022-07-12T14:44:41;26.34;49.29
73568;SHT30;61847;54.994;73.310;2022-07-12T14:47:08;26.41;48.81
73568;SHT30;61847;54.994;73.310;2022-07-12T14:49:45;26.12;49.48
73568;SHT30;61847;54.994;73.310;2022-07-12T14:52:12;25.97;49.48
73568;SHT30;61847;54.994;73.310;2022-07-12T14:54:38;25.94;49.25
73568;SHT30;61847;54.994;73.310;2022-07-12T14:57:04;25.87;49.22
73568;SHT30;61847;54.994;73.310;2022-07-12T14:59:36;25.96;49.03
73568;SHT30;61847;54.994;73.310;2022-07-12T15:02:05;25.77;49.16
73568;SHT30;61847;54.994;73.310;2022-07-12T15:04:31;25.73;49.20
73568;SHT30;61847;54.994;73.310;2022-07-12T15:06:57;25.68;49.53
73568;SHT30;61847;54.994;73.310;2022-07-12T15:09:24;25.56;49.73
73568;SHT30;61847;54.994;73.310;2022-07-12T15:11:50;25.63;49.46
73568;SHT30;61847;54.994;73.310;2022-07-12T15:14:18;25.45;50.00
73568;SHT30;61847;54.994;73.310;2022-07-12T15:16:44;25.24;50.83
73568;SHT30;61847;54.994;73.310;2022-07-12T15:19:10;25.27;50.38
73568;SHT30;61847;54.994;73.310;2022-07-12T15:21:37;25.21;50.44
73568;SHT30;61847;54.994;73.310;2022-07-12T15:24:03;25.03;50.92
73568;SHT30;61847;54.994;73.310;2022-07-12T15:26:30;24.98;51.15
73568;SHT30;61847;54.994;73.310;2022-07-12T15:28:59;24.94;51.10
73568;SHT30;61847;54.994;73.310;2022-07-12T15:31:28;24.86;51.41
73568;SHT30;61847;54.994;73.310;2022-07-12T15:33:54;24.80;51.49
73568;SHT30;61847;54.994;73.310;2022-07-12T15:36:20;24.80;51.03
73568;SHT30;61847;54.994;73.310;2022-07-12T15:38:57;24.74;50.88
73568;SHT30;61847;54.994;73.310;2022-07-12T15:41:23;24.53;50.35
73568;SHT30;61847;54.994;73.310;2022-07-12T15:43:57;24.49;50.58